Gibson, Australia
Current Conditions -  °F | °C
As of 3:30 AM on Sunday 21 Dec 2014 (Local Time) from YESP Reporting Station
Overcast Overcast  
Wind Chill: 63°   Ceiling: 600
Heat Index: 63°   Visibility: 6mi
Dew Point: 63°   Wind: 14mph
Humidity: 100%   Direction: 140°SE
Pressure: 29.91"   Gusts: NA
Location:  33.64°S, 121.81°E
Report Text: YESP 201930Z AUTO 14012KT 9999 // OVC006 OVC017 17/17 Q1013
Loading
Personal Weather Stations






























Interactive Weather Map New forecast layout! Learn more

10-Day Weather Forecast

Advertisements
Track Severe Weather on mobile